sensor_id;sensor_type;location;lat;lon;timestamp;P1;durP1;ratioP1;P2;durP2;ratioP2
9310;SDS011;4694;52.464;13.480;2022-09-06T00:01:11;8.63;;;1.55;;
9310;SDS011;4694;52.464;13.480;2022-09-06T00:03:39;1.60;;;0.80;;
9310;SDS011;4694;52.464;13.480;2022-09-06T00:06:07;8.30;;;1.58;;
9310;SDS011;4694;52.464;13.480;2022-09-06T00:08:35;1.98;;;0.90;;
9310;SDS011;4694;52.464;13.480;2022-09-06T00:11:02;2.33;;;1.13;;
9310;SDS011;4694;52.464;13.480;2022-09-06T00:13:29;1.75;;;0.95;;
9310;SDS011;4694;52.464;13.480;2022-09-06T00:16:02;3.22;;;0.90;;
9310;SDS011;4694;52.464;13.480;2022-09-06T00:18:29;2.08;;;0.60;;
9310;SDS011;4694;52.464;13.480;2022-09-06T00:20:57;1.65;;;0.73;;
9310;SDS011;4694;52.464;13.480;2022-09-06T00:23:24;3.72;;;0.73;;
9310;SDS011;4694;52.464;13.480;2022-09-06T00:25:51;4.10;;;0.68;;
9310;SDS011;4694;52.464;13.480;2022-09-06T00:28:18;2.15;;;1.00;;
9310;SDS011;4694;52.464;13.480;2022-09-06T00:30:45;4.30;;;0.70;;
9310;SDS011;4694;52.464;13.480;2022-09-06T00:33:12;3.85;;;0.80;;
9310;SDS011;4694;52.464;13.480;2022-09-06T00:35:39;4.75;;;1.02;;
9310;SDS011;4694;52.464;13.480;2022-09-06T00:38:09;1.45;;;0.52;;
9310;SDS011;4694;52.464;13.480;2022-09-06T00:40:36;6.90;;;1.13;;
9310;SDS011;4694;52.464;13.480;2022-09-06T00:43:03;2.92;;;1.15;;
9310;SDS011;4694;52.464;13.480;2022-09-06T00:45:30;2.05;;;0.70;;
9310;SDS011;4694;52.464;13.480;2022-09-06T00:47:57;2.78;;;0.57;;
9310;SDS011;4694;52.464;13.480;2022-09-06T00:50:25;1.35;;;0.60;;
9310;SDS011;4694;52.464;13.480;2022-09-06T00:52:53;2.72;;;0.57;;
9310;SDS011;4694;52.464;13.480;2022-09-06T00:55:21;3.28;;;0.70;;
9310;SDS011;4694;52.464;13.480;2022-09-06T00:57:50;1.92;;;0.70;;
9310;SDS011;4694;52.464;13.480;2022-09-06T01:00:18;2.83;;;1.35;;
9310;SDS011;4694;52.464;13.480;2022-09-06T01:02:46;1.45;;;0.75;;
9310;SDS011;4694;52.464;13.480;2022-09-06T01:05:13;3.08;;;0.80;;
9310;SDS011;4694;52.464;13.480;2022-09-06T01:07:46;3.78;;;1.02;;
9310;SDS011;4694;52.464;13.480;2022-09-06T01:10:27;1.98;;;0.55;;
9310;SDS011;4694;52.464;13.480;2022-09-06T01:12:58;4.55;;;0.60;;
9310;SDS011;4694;52.464;13.480;2022-09-06T01:15:29;2.53;;;0.60;;
9310;SDS011;4694;52.464;13.480;2022-09-06T01:18:00;3.13;;;0.80;;
9310;SDS011;4694;52.464;13.480;2022-09-06T01:20:36;3.33;;;0.50;;
9310;SDS011;4694;52.464;13.480;2022-09-06T01:23:16;4.47;;;0.43;;
9310;SDS011;4694;52.464;13.480;2022-09-06T01:25:53;3.58;;;0.50;;
9310;SDS011;4694;52.464;13.480;2022-09-06T01:28:26;0.90;;;0.40;;
9310;SDS011;4694;52.464;13.480;2022-09-06T01:30:56;2.73;;;0.60;;
9310;SDS011;4694;52.464;13.480;2022-09-06T01:33:27;3.53;;;0.70;;
9310;SDS011;4694;52.464;13.480;2022-09-06T01:35:59;0.55;;;0.43;;
9310;SDS011;4694;52.464;13.480;2022-09-06T01:38:27;2.35;;;0.55;;
9310;SDS011;4694;52.464;13.480;2022-09-06T01:40:54;2.15;;;0.50;;
9310;SDS011;4694;52.464;13.480;2022-09-06T01:43:22;1.63;;;0.43;;
9310;SDS011;4694;52.464;13.480;2022-09-06T01:45:56;1.58;;;0.40;;
9310;SDS011;4694;52.464;13.480;2022-09-06T01:48:29;4.80;;;0.45;;
9310;SDS011;4694;52.464;13.480;2022-09-06T01:51:03;0.93;;;0.40;;
9310;SDS011;4694;52.464;13.480;2022-09-06T01:53:42;1.95;;;0.88;;
9310;SDS011;4694;52.464;13.480;2022-09-06T01:56:15;2.20;;;0.55;;
9310;SDS011;4694;52.464;13.480;2022-09-06T01:58:54;2.25;;;0.60;;
9310;SDS011;4694;52.464;13.480;2022-09-06T02:01:26;1.30;;;0.40;;
9310;SDS011;4694;52.464;13.480;2022-09-06T02:03:57;2.95;;;0.40;;
9310;SDS011;4694;52.464;13.480;2022-09-06T02:08:53;1.20;;;0.50;;
9310;SDS011;4694;52.464;13.480;2022-09-06T02:11:22;3.97;;;0.68;;
9310;SDS011;4694;52.464;13.480;2022-09-06T02:13:51;1.63;;;0.50;;
9310;SDS011;4694;52.464;13.480;2022-09-06T02:18:50;1.85;;;0.70;;
9310;SDS011;4694;52.464;13.480;2022-09-06T02:21:18;1.57;;;0.47;;
9310;SDS011;4694;52.464;13.480;2022-09-06T02:23:47;2.25;;;0.45;;
9310;SDS011;4694;52.464;13.480;2022-09-06T02:26:16;1.60;;;0.60;;
9310;SDS011;4694;52.464;13.480;2022-09-06T02:28:44;3.03;;;0.60;;
9310;SDS011;4694;52.464;13.480;2022-09-06T02:31:12;4.93;;;0.90;;
9310;SDS011;4694;52.464;13.480;2022-09-06T02:36:10;3.60;;;0.80;;
9310;SDS011;4694;52.464;13.480;2022-09-06T02:38:38;3.35;;;1.02;;
9310;SDS011;4694;52.464;13.480;2022-09-06T02:41:06;0.88;;;0.38;;
9310;SDS011;4694;52.464;13.480;2022-09-06T02:43:33;2.70;;;0.50;;
9310;SDS011;4694;52.464;13.480;2022-09-06T02:46:00;3.17;;;0.60;;
9310;SDS011;4694;52.464;13.480;2022-09-06T02:48:27;3.33;;;0.98;;
9310;SDS011;4694;52.464;13.480;2022-09-06T02:50:54;8.30;;;1.85;;
9310;SDS011;4694;52.464;13.480;2022-09-06T02:53:22;2.13;;;0.80;;
9310;SDS011;4694;52.464;13.480;2022-09-06T02:55:50;1.70;;;0.93;;
9310;SDS011;4694;52.464;13.480;2022-09-06T02:58:17;2.65;;;0.60;;
9310;SDS011;4694;52.464;13.480;2022-09-06T03:00:44;1.15;;;0.60;;
9310;SDS011;4694;52.464;13.480;2022-09-06T03:03:11;2.40;;;0.93;;
9310;SDS011;4694;52.464;13.480;2022-09-06T03:05:38;1.48;;;0.50;;
9310;SDS011;4694;52.464;13.480;2022-09-06T03:08:05;1.45;;;0.52;;
9310;SDS011;4694;52.464;13.480;2022-09-06T03:10:34;1.42;;;0.50;;
9310;SDS011;4694;52.464;13.480;2022-09-06T03:13:02;6.32;;;0.60;;
9310;SDS011;4694;52.464;13.480;2022-09-06T03:15:29;1.45;;;0.73;;
9310;SDS011;4694;52.464;13.480;2022-09-06T03:17:56;1.95;;;0.70;;
9310;SDS011;4694;52.464;13.480;2022-09-06T03:20:23;2.15;;;0.77;;
9310;SDS011;4694;52.464;13.480;2022-09-06T03:22:51;3.83;;;1.10;;
9310;SDS011;4694;52.464;13.480;2022-09-06T03:25:18;1.75;;;1.02;;
9310;SDS011;4694;52.464;13.480;2022-09-06T03:27:47;1.80;;;1.10;;
9310;SDS011;4694;52.464;13.480;2022-09-06T03:30:14;1.77;;;0.60;;
9310;SDS011;4694;52.464;13.480;2022-09-06T03:32:41;3.05;;;0.60;;
9310;SDS011;4694;52.464;13.480;2022-09-06T03:35:08;3.28;;;0.80;;
9310;SDS011;4694;52.464;13.480;2022-09-06T03:37:35;2.35;;;0.98;;
9310;SDS011;4694;52.464;13.480;2022-09-06T03:40:02;4.90;;;0.68;;
9310;SDS011;4694;52.464;13.480;2022-09-06T03:42:30;2.20;;;1.38;;
9310;SDS011;4694;52.464;13.480;2022-09-06T03:44:58;0.80;;;0.50;;
9310;SDS011;4694;52.464;13.480;2022-09-06T03:47:25;3.20;;;0.85;;
9310;SDS011;4694;52.464;13.480;2022-09-06T03:49:52;3.58;;;0.45;;
9310;SDS011;4694;52.464;13.480;2022-09-06T03:52:19;2.58;;;0.40;;
9310;SDS011;4694;52.464;13.480;2022-09-06T03:54:46;3.17;;;0.55;;
9310;SDS011;4694;52.464;13.480;2022-09-06T03:57:13;2.95;;;0.70;;
9310;SDS011;4694;52.464;13.480;2022-09-06T03:59:40;2.83;;;0.70;;
9310;SDS011;4694;52.464;13.480;2022-09-06T04:02:08;3.30;;;0.60;;
9310;SDS011;4694;52.464;13.480;2022-09-06T04:04:35;4.07;;;0.75;;
9310;SDS011;4694;52.464;13.480;2022-09-06T04:07:02;1.63;;;0.60;;
9310;SDS011;4694;52.464;13.480;2022-09-06T04:09:29;9.13;;;0.85;;
9310;SDS011;4694;52.464;13.480;2022-09-06T04:11:56;1.92;;;0.77;;
9310;SDS011;4694;52.464;13.480;2022-09-06T04:14:23;5.07;;;1.13;;
9310;SDS011;4694;52.464;13.480;2022-09-06T04:16:50;2.17;;;0.85;;
9310;SDS011;4694;52.464;13.480;2022-09-06T04:19:19;2.50;;;1.10;;
9310;SDS011;4694;52.464;13.480;2022-09-06T04:21:46;3.03;;;1.08;;
9310;SDS011;4694;52.464;13.480;2022-09-06T04:24:13;2.33;;;1.65;;
9310;SDS011;4694;52.464;13.480;2022-09-06T04:26:40;4.88;;;0.88;;
9310;SDS011;4694;52.464;13.480;2022-09-06T04:29:07;2.75;;;1.27;;
9310;SDS011;4694;52.464;13.480;2022-09-06T04:31:34;2.25;;;0.50;;
9310;SDS011;4694;52.464;13.480;2022-09-06T04:34:01;2.80;;;0.68;;
9310;SDS011;4694;52.464;13.480;2022-09-06T04:36:29;2.05;;;0.98;;
9310;SDS011;4694;52.464;13.480;2022-09-06T04:38:56;2.78;;;0.95;;
9310;SDS011;4694;52.464;13.480;2022-09-06T04:41:23;5.65;;;0.80;;
9310;SDS011;4694;52.464;13.480;2022-09-06T04:43:50;2.13;;;0.80;;
9310;SDS011;4694;52.464;13.480;2022-09-06T04:46:18;1.55;;;0.70;;
9310;SDS011;4694;52.464;13.480;2022-09-06T04:48:45;2.35;;;0.77;;
9310;SDS011;4694;52.464;13.480;2022-09-06T04:51:13;1.58;;;0.85;;
9310;SDS011;4694;52.464;13.480;2022-09-06T04:53:41;2.28;;;0.93;;
9310;SDS011;4694;52.464;13.480;2022-09-06T04:56:09;2.47;;;0.80;;
9310;SDS011;4694;52.464;13.480;2022-09-06T04:58:38;8.18;;;1.15;;
9310;SDS011;4694;52.464;13.480;2022-09-06T05:01:05;1.75;;;0.65;;
9310;SDS011;4694;52.464;13.480;2022-09-06T05:03:32;5.95;;;1.40;;
9310;SDS011;4694;52.464;13.480;2022-09-06T05:06:03;3.60;;;0.60;;
9310;SDS011;4694;52.464;13.480;2022-09-06T05:10:58;1.00;;;0.50;;
9310;SDS011;4694;52.464;13.480;2022-09-06T05:13:25;2.58;;;0.60;;
9310;SDS011;4694;52.464;13.480;2022-09-06T05:15:52;2.00;;;0.70;;
9310;SDS011;4694;52.464;13.480;2022-09-06T05:18:19;1.75;;;0.68;;
9310;SDS011;4694;52.464;13.480;2022-09-06T05:20:50;3.22;;;0.65;;
9310;SDS011;4694;52.464;13.480;2022-09-06T05:23:17;5.38;;;0.85;;
9310;SDS011;4694;52.464;13.480;2022-09-06T05:25:44;4.07;;;1.33;;
9310;SDS011;4694;52.464;13.480;2022-09-06T05:28:12;3.10;;;1.17;;
9310;SDS011;4694;52.464;13.480;2022-09-06T05:30:39;2.25;;;0.95;;
9310;SDS011;4694;52.464;13.480;2022-09-06T05:33:06;2.58;;;0.70;;
9310;SDS011;4694;52.464;13.480;2022-09-06T05:35:33;0.88;;;0.73;;
9310;SDS011;4694;52.464;13.480;2022-09-06T05:38:00;3.55;;;0.98;;
9310;SDS011;4694;52.464;13.480;2022-09-06T05:40:27;2.47;;;0.90;;
9310;SDS011;4694;52.464;13.480;2022-09-06T05:42:54;8.65;;;1.83;;
9310;SDS011;4694;52.464;13.480;2022-09-06T05:45:22;4.18;;;2.35;;
9310;SDS011;4694;52.464;13.480;2022-09-06T05:47:49;1.83;;;0.93;;
9310;SDS011;4694;52.464;13.480;2022-09-06T05:50:18;3.03;;;0.80;;
9310;SDS011;4694;52.464;13.480;2022-09-06T05:52:45;4.18;;;0.73;;
9310;SDS011;4694;52.464;13.480;2022-09-06T05:55:12;2.33;;;1.05;;
9310;SDS011;4694;52.464;13.480;2022-09-06T05:57:39;2.17;;;0.70;;
9310;SDS011;4694;52.464;13.480;2022-09-06T06:00:07;2.05;;;1.00;;
9310;SDS011;4694;52.464;13.480;2022-09-06T06:02:37;3.88;;;0.73;;
9310;SDS011;4694;52.464;13.480;2022-09-06T06:05:05;0.95;;;0.93;;
9310;SDS011;4694;52.464;13.480;2022-09-06T06:07:32;1.42;;;1.15;;
9310;SDS011;4694;52.464;13.480;2022-09-06T06:09:59;3.33;;;0.90;;
9310;SDS011;4694;52.464;13.480;2022-09-06T06:12:26;4.68;;;0.95;;
9310;SDS011;4694;52.464;13.480;2022-09-06T06:14:53;1.90;;;0.73;;
9310;SDS011;4694;52.464;13.480;2022-09-06T06:17:20;2.88;;;0.60;;
9310;SDS011;4694;52.464;13.480;2022-09-06T06:19:48;3.50;;;0.65;;
9310;SDS011;4694;52.464;13.480;2022-09-06T06:22:15;0.77;;;0.52;;
9310;SDS011;4694;52.464;13.480;2022-09-06T06:24:42;2.88;;;0.98;;
9310;SDS011;4694;52.464;13.480;2022-09-06T06:27:09;6.57;;;0.85;;
9310;SDS011;4694;52.464;13.480;2022-09-06T06:29:36;0.85;;;0.63;;
9310;SDS011;4694;52.464;13.480;2022-09-06T06:32:03;1.70;;;0.65;;
9310;SDS011;4694;52.464;13.480;2022-09-06T06:34:30;2.10;;;0.70;;
9310;SDS011;4694;52.464;13.480;2022-09-06T06:36:59;1.23;;;0.60;;
9310;SDS011;4694;52.464;13.480;2022-09-06T06:39:26;2.17;;;0.65;;
9310;SDS011;4694;52.464;13.480;2022-09-06T06:41:53;3.17;;;0.57;;
9310;SDS011;4694;52.464;13.480;2022-09-06T06:44:20;2.95;;;1.05;;
9310;SDS011;4694;52.464;13.480;2022-09-06T06:46:47;1.05;;;0.70;;
9310;SDS011;4694;52.464;13.480;2022-09-06T06:49:14;1.33;;;0.50;;
9310;SDS011;4694;52.464;13.480;2022-09-06T06:51:41;4.35;;;0.68;;
9310;SDS011;4694;52.464;13.480;2022-09-06T06:54:09;4.15;;;2.17;;
9310;SDS011;4694;52.464;13.480;2022-09-06T06:56:37;5.57;;;0.95;;
9310;SDS011;4694;52.464;13.480;2022-09-06T06:59:05;2.78;;;1.42;;
9310;SDS011;4694;52.464;13.480;2022-09-06T07:01:33;4.05;;;0.70;;
9310;SDS011;4694;52.464;13.480;2022-09-06T07:04:00;2.30;;;0.93;;
9310;SDS011;4694;52.464;13.480;2022-09-06T07:06:27;2.88;;;0.80;;
9310;SDS011;4694;52.464;13.480;2022-09-06T07:08:55;2.83;;;0.60;;
9310;SDS011;4694;52.464;13.480;2022-09-06T07:11:24;3.63;;;0.70;;
9310;SDS011;4694;52.464;13.480;2022-09-06T07:13:51;1.83;;;0.70;;
9310;SDS011;4694;52.464;13.480;2022-09-06T07:16:19;1.02;;;0.80;;
9310;SDS011;4694;52.464;13.480;2022-09-06T07:18:49;2.00;;;0.85;;
9310;SDS011;4694;52.464;13.480;2022-09-06T07:21:16;2.10;;;0.90;;
9310;SDS011;4694;52.464;13.480;2022-09-06T07:23:44;5.63;;;0.73;;
9310;SDS011;4694;52.464;13.480;2022-09-06T07:26:12;7.65;;;1.10;;
9310;SDS011;4694;52.464;13.480;2022-09-06T07:28:41;1.30;;;1.17;;
9310;SDS011;4694;52.464;13.480;2022-09-06T07:31:08;2.80;;;1.17;;
9310;SDS011;4694;52.464;13.480;2022-09-06T07:33:36;2.92;;;0.70;;
9310;SDS011;4694;52.464;13.480;2022-09-06T07:36:04;1.90;;;0.63;;
9310;SDS011;4694;52.464;13.480;2022-09-06T07:38:32;2.42;;;1.13;;
9310;SDS011;4694;52.464;13.480;2022-09-06T07:40:59;1.90;;;1.60;;
9310;SDS011;4694;52.464;13.480;2022-09-06T07:43:27;1.38;;;1.10;;
9310;SDS011;4694;52.464;13.480;2022-09-06T07:46:02;2.65;;;1.13;;
9310;SDS011;4694;52.464;13.480;2022-09-06T07:48:30;2.83;;;1.27;;
9310;SDS011;4694;52.464;13.480;2022-09-06T07:51:04;1.83;;;0.80;;
9310;SDS011;4694;52.464;13.480;2022-09-06T07:53:31;4.82;;;1.13;;
9310;SDS011;4694;52.464;13.480;2022-09-06T07:55:58;1.75;;;0.90;;
9310;SDS011;4694;52.464;13.480;2022-09-06T07:58:26;1.58;;;1.40;;
9310;SDS011;4694;52.464;13.480;2022-09-06T08:00:53;3.03;;;1.23;;
9310;SDS011;4694;52.464;13.480;2022-09-06T08:03:21;4.20;;;1.52;;
9310;SDS011;4694;52.464;13.480;2022-09-06T08:05:48;2.78;;;1.08;;
9310;SDS011;4694;52.464;13.480;2022-09-06T08:08:16;2.78;;;1.30;;
9310;SDS011;4694;52.464;13.480;2022-09-06T08:10:42;2.63;;;1.05;;
9310;SDS011;4694;52.464;13.480;2022-09-06T08:13:09;2.20;;;1.58;;
9310;SDS011;4694;52.464;13.480;2022-09-06T08:15:36;3.72;;;1.35;;
9310;SDS011;4694;52.464;13.480;2022-09-06T08:18:04;4.68;;;1.60;;
9310;SDS011;4694;52.464;13.480;2022-09-06T08:20:32;5.00;;;1.92;;
9310;SDS011;4694;52.464;13.480;2022-09-06T08:22:59;4.90;;;1.77;;
9310;SDS011;4694;52.464;13.480;2022-09-06T08:25:26;1.17;;;1.05;;
9310;SDS011;4694;52.464;13.480;2022-09-06T08:27:53;3.90;;;1.20;;
9310;SDS011;4694;52.464;13.480;2022-09-06T08:30:20;1.83;;;1.20;;
9310;SDS011;4694;52.464;13.480;2022-09-06T08:32:47;2.90;;;1.45;;
9310;SDS011;4694;52.464;13.480;2022-09-06T08:35:15;5.10;;;1.63;;
9310;SDS011;4694;52.464;13.480;2022-09-06T08:37:43;2.28;;;1.63;;
9310;SDS011;4694;52.464;13.480;2022-09-06T08:40:10;3.70;;;1.40;;
9310;SDS011;4694;52.464;13.480;2022-09-06T08:42:38;2.00;;;1.60;;
9310;SDS011;4694;52.464;13.480;2022-09-06T08:45:06;4.95;;;1.52;;
9310;SDS011;4694;52.464;13.480;2022-09-06T08:47:36;5.63;;;1.90;;
9310;SDS011;4694;52.464;13.480;2022-09-06T08:50:04;5.47;;;1.63;;
9310;SDS011;4694;52.464;13.480;2022-09-06T08:52:51;7.07;;;1.73;;
9310;SDS011;4694;52.464;13.480;2022-09-06T08:55:25;4.07;;;1.50;;
9310;SDS011;4694;52.464;13.480;2022-09-06T08:58:10;4.10;;;3.00;;
9310;SDS011;4694;52.464;13.480;2022-09-06T09:00:44;4.65;;;1.83;;
9310;SDS011;4694;52.464;13.480;2022-09-06T09:03:13;3.72;;;1.38;;
9310;SDS011;4694;52.464;13.480;2022-09-06T09:05:42;8.50;;;4.03;;
9310;SDS011;4694;52.464;13.480;2022-09-06T09:08:15;2.95;;;1.40;;
9310;SDS011;4694;52.464;13.480;2022-09-06T09:10:46;3.90;;;2.10;;
9310;SDS011;4694;52.464;13.480;2022-09-06T09:13:16;2.75;;;1.45;;
9310;SDS011;4694;52.464;13.480;2022-09-06T09:15:45;4.00;;;1.40;;
9310;SDS011;4694;52.464;13.480;2022-09-06T09:18:21;2.75;;;1.33;;
9310;SDS011;4694;52.464;13.480;2022-09-06T09:20:49;7.35;;;1.92;;
9310;SDS011;4694;52.464;13.480;2022-09-06T09:23:17;4.05;;;1.75;;
9310;SDS011;4694;52.464;13.480;2022-09-06T09:25:44;4.82;;;1.70;;
9310;SDS011;4694;52.464;13.480;2022-09-06T09:28:14;5.03;;;1.73;;
9310;SDS011;4694;52.464;13.480;2022-09-06T09:30:46;3.63;;;1.80;;
9310;SDS011;4694;52.464;13.480;2022-09-06T09:33:21;3.50;;;1.35;;
9310;SDS011;4694;52.464;13.480;2022-09-06T09:35:48;2.67;;;1.88;;
9310;SDS011;4694;52.464;13.480;2022-09-06T09:38:19;5.30;;;1.75;;
9310;SDS011;4694;52.464;13.480;2022-09-06T09:40:50;2.85;;;1.92;;
9310;SDS011;4694;52.464;13.480;2022-09-06T09:43:19;6.95;;;1.60;;
9310;SDS011;4694;52.464;13.480;2022-09-06T09:45:56;3.13;;;2.28;;
9310;SDS011;4694;52.464;13.480;2022-09-06T09:48:33;3.60;;;1.85;;
9310;SDS011;4694;52.464;13.480;2022-09-06T09:51:14;3.97;;;1.92;;
9310;SDS011;4694;52.464;13.480;2022-09-06T09:53:49;3.30;;;2.72;;
9310;SDS011;4694;52.464;13.480;2022-09-06T09:56:17;5.53;;;2.30;;
9310;SDS011;4694;52.464;13.480;2022-09-06T09:58:46;5.77;;;2.43;;
9310;SDS011;4694;52.464;13.480;2022-09-06T10:01:24;5.85;;;2.60;;
9310;SDS011;4694;52.464;13.480;2022-09-06T10:03:52;5.57;;;2.25;;
9310;SDS011;4694;52.464;13.480;2022-09-06T10:06:25;4.47;;;3.10;;
9310;SDS011;4694;52.464;13.480;2022-09-06T10:08:54;4.85;;;2.95;;
9310;SDS011;4694;52.464;13.480;2022-09-06T10:11:38;4.35;;;3.25;;
9310;SDS011;4694;52.464;13.480;2022-09-06T10:14:11;3.80;;;2.47;;
9310;SDS011;4694;52.464;13.480;2022-09-06T10:16:42;4.85;;;3.00;;
9310;SDS011;4694;52.464;13.480;2022-09-06T10:19:20;6.57;;;2.90;;
9310;SDS011;4694;52.464;13.480;2022-09-06T10:21:47;9.73;;;2.80;;
9310;SDS011;4694;52.464;13.480;2022-09-06T10:24:18;4.32;;;2.30;;
9310;SDS011;4694;52.464;13.480;2022-09-06T10:26:48;6.18;;;2.70;;
9310;SDS011;4694;52.464;13.480;2022-09-06T10:29:17;7.90;;;2.88;;
9310;SDS011;4694;52.464;13.480;2022-09-06T10:31:56;4.05;;;2.65;;
9310;SDS011;4694;52.464;13.480;2022-09-06T10:34:33;5.70;;;3.10;;
9310;SDS011;4694;52.464;13.480;2022-09-06T10:37:08;5.15;;;2.80;;
9310;SDS011;4694;52.464;13.480;2022-09-06T10:39:41;4.10;;;2.38;;
9310;SDS011;4694;52.464;13.480;2022-09-06T10:42:13;6.43;;;2.33;;
9310;SDS011;4694;52.464;13.480;2022-09-06T10:44:49;5.03;;;2.60;;
9310;SDS011;4694;52.464;13.480;2022-09-06T10:47:20;5.00;;;3.28;;
9310;SDS011;4694;52.464;13.480;2022-09-06T10:49:51;4.47;;;2.72;;
9310;SDS011;4694;52.464;13.480;2022-09-06T10:52:20;3.72;;;2.70;;
9310;SDS011;4694;52.464;13.480;2022-09-06T10:54:50;2.85;;;2.30;;
9310;SDS011;4694;52.464;13.480;2022-09-06T10:59:47;4.28;;;2.60;;
9310;SDS011;4694;52.464;13.480;2022-09-06T11:02:17;7.78;;;2.50;;
9310;SDS011;4694;52.464;13.480;2022-09-06T11:04:49;5.30;;;2.33;;
9310;SDS011;4694;52.464;13.480;2022-09-06T11:07:18;4.35;;;2.42;;
9310;SDS011;4694;52.464;13.480;2022-09-06T11:09:48;4.07;;;2.72;;
9310;SDS011;4694;52.464;13.480;2022-09-06T11:12:21;5.40;;;3.13;;
9310;SDS011;4694;52.464;13.480;2022-09-06T11:14:52;3.75;;;2.63;;
9310;SDS011;4694;52.464;13.480;2022-09-06T11:17:22;6.72;;;2.47;;
9310;SDS011;4694;52.464;13.480;2022-09-06T11:19:56;4.07;;;2.80;;
9310;SDS011;4694;52.464;13.480;2022-09-06T11:27:57;2.63;;;2.25;;
9310;SDS011;4694;52.464;13.480;2022-09-06T11:30:25;4.15;;;2.55;;
9310;SDS011;4694;52.464;13.480;2022-09-06T11:33:01;2.90;;;2.30;;
9310;SDS011;4694;52.464;13.480;2022-09-06T11:35:31;2.90;;;2.40;;
9310;SDS011;4694;52.464;13.480;2022-09-06T11:37:59;4.28;;;2.40;;
9310;SDS011;4694;52.464;13.480;2022-09-06T11:40:33;4.40;;;2.25;;
9310;SDS011;4694;52.464;13.480;2022-09-06T11:43:11;3.60;;;2.80;;
9310;SDS011;4694;52.464;13.480;2022-09-06T11:45:39;3.75;;;2.63;;
9310;SDS011;4694;52.464;13.480;2022-09-06T11:51:02;6.15;;;2.85;;
9310;SDS011;4694;52.464;13.480;2022-09-06T11:53:31;5.10;;;3.00;;
9310;SDS011;4694;52.464;13.480;2022-09-06T11:56:10;4.45;;;2.75;;
9310;SDS011;4694;52.464;13.480;2022-09-06T11:58:44;6.13;;;2.75;;
9310;SDS011;4694;52.464;13.480;2022-09-06T12:01:32;2.55;;;2.20;;
9310;SDS011;4694;52.464;13.480;2022-09-06T12:04:00;3.42;;;3.13;;
9310;SDS011;4694;52.464;13.480;2022-09-06T12:06:28;3.72;;;2.72;;
9310;SDS011;4694;52.464;13.480;2022-09-06T12:08:56;3.38;;;2.72;;
9310;SDS011;4694;52.464;13.480;2022-09-06T12:11:33;5.85;;;3.55;;
9310;SDS011;4694;52.464;13.480;2022-09-06T12:14:03;2.78;;;2.55;;
9310;SDS011;4694;52.464;13.480;2022-09-06T12:21:58;6.07;;;3.65;;
9310;SDS011;4694;52.464;13.480;2022-09-06T12:27:11;6.47;;;3.08;;
9310;SDS011;4694;52.464;13.480;2022-09-06T12:32:28;7.47;;;3.03;;
9310;SDS011;4694;52.464;13.480;2022-09-06T12:34:56;7.72;;;3.95;;
9310;SDS011;4694;52.464;13.480;2022-09-06T12:37:31;3.35;;;2.67;;
9310;SDS011;4694;52.464;13.480;2022-09-06T12:39:58;6.65;;;2.63;;
9310;SDS011;4694;52.464;13.480;2022-09-06T12:42:25;5.63;;;3.05;;
9310;SDS011;4694;52.464;13.480;2022-09-06T12:44:53;7.50;;;3.25;;
9310;SDS011;4694;52.464;13.480;2022-09-06T12:47:21;4.60;;;2.65;;
9310;SDS011;4694;52.464;13.480;2022-09-06T12:52:45;3.38;;;2.83;;
9310;SDS011;4694;52.464;13.480;2022-09-06T12:55:14;3.90;;;3.17;;
9310;SDS011;4694;52.464;13.480;2022-09-06T12:57:45;6.15;;;2.75;;
9310;SDS011;4694;52.464;13.480;2022-09-06T13:00:13;5.57;;;3.33;;
9310;SDS011;4694;52.464;13.480;2022-09-06T13:02:42;6.40;;;2.85;;
9310;SDS011;4694;52.464;13.480;2022-09-06T13:05:11;8.27;;;3.08;;
9310;SDS011;4694;52.464;13.480;2022-09-06T13:07:39;3.78;;;2.60;;
9310;SDS011;4694;52.464;13.480;2022-09-06T13:10:08;5.07;;;2.92;;
9310;SDS011;4694;52.464;13.480;2022-09-06T13:12:38;3.53;;;2.97;;
9310;SDS011;4694;52.464;13.480;2022-09-06T13:15:06;3.28;;;2.95;;
9310;SDS011;4694;52.464;13.480;2022-09-06T13:17:35;5.60;;;3.22;;
9310;SDS011;4694;52.464;13.480;2022-09-06T13:20:09;4.60;;;3.00;;
9310;SDS011;4694;52.464;13.480;2022-09-06T13:22:37;5.00;;;3.10;;
9310;SDS011;4694;52.464;13.480;2022-09-06T13:25:05;4.60;;;2.50;;
9310;SDS011;4694;52.464;13.480;2022-09-06T13:27:41;7.57;;;2.60;;
9310;SDS011;4694;52.464;13.480;2022-09-06T13:30:20;5.72;;;2.90;;
9310;SDS011;4694;52.464;13.480;2022-09-06T13:32:54;8.85;;;2.67;;
9310;SDS011;4694;52.464;13.480;2022-09-06T13:35:22;5.72;;;3.60;;
9310;SDS011;4694;52.464;13.480;2022-09-06T13:37:49;5.00;;;3.47;;
9310;SDS011;4694;52.464;13.480;2022-09-06T13:43:03;3.95;;;3.33;;
9310;SDS011;4694;52.464;13.480;2022-09-06T13:45:35;5.13;;;3.45;;
9310;SDS011;4694;52.464;13.480;2022-09-06T13:48:02;3.50;;;3.03;;
9310;SDS011;4694;52.464;13.480;2022-09-06T13:50:30;4.00;;;3.13;;
9310;SDS011;4694;52.464;13.480;2022-09-06T13:52:57;4.75;;;3.53;;
9310;SDS011;4694;52.464;13.480;2022-09-06T13:55:27;5.43;;;3.13;;
9310;SDS011;4694;52.464;13.480;2022-09-06T13:57:56;4.35;;;2.95;;
9310;SDS011;4694;52.464;13.480;2022-09-06T14:00:24;6.00;;;3.35;;
9310;SDS011;4694;52.464;13.480;2022-09-06T14:02:52;5.28;;;3.22;;
9310;SDS011;4694;52.464;13.480;2022-09-06T14:05:19;4.88;;;2.80;;
9310;SDS011;4694;52.464;13.480;2022-09-06T14:07:46;4.15;;;3.13;;
9310;SDS011;4694;52.464;13.480;2022-09-06T14:10:13;6.50;;;3.50;;
9310;SDS011;4694;52.464;13.480;2022-09-06T14:12:40;3.45;;;2.95;;
9310;SDS011;4694;52.464;13.480;2022-09-06T14:15:07;3.72;;;2.95;;
9310;SDS011;4694;52.464;13.480;2022-09-06T14:17:36;4.28;;;3.88;;
9310;SDS011;4694;52.464;13.480;2022-09-06T14:20:03;5.65;;;3.08;;
9310;SDS011;4694;52.464;13.480;2022-09-06T14:22:30;3.15;;;2.60;;
9310;SDS011;4694;52.464;13.480;2022-09-06T14:24:57;3.75;;;3.45;;
9310;SDS011;4694;52.464;13.480;2022-09-06T14:27:24;3.05;;;2.80;;
9310;SDS011;4694;52.464;13.480;2022-09-06T14:29:51;3.85;;;2.92;;
9310;SDS011;4694;52.464;13.480;2022-09-06T14:32:18;5.68;;;3.28;;
9310;SDS011;4694;52.464;13.480;2022-09-06T14:34:47;4.43;;;3.33;;
9310;SDS011;4694;52.464;13.480;2022-09-06T14:37:14;3.95;;;2.83;;
9310;SDS011;4694;52.464;13.480;2022-09-06T14:39:41;6.13;;;3.38;;
9310;SDS011;4694;52.464;13.480;2022-09-06T14:42:08;5.95;;;3.08;;
9310;SDS011;4694;52.464;13.480;2022-09-06T14:44:35;6.80;;;2.72;;
9310;SDS011;4694;52.464;13.480;2022-09-06T14:47:02;4.07;;;3.28;;
9310;SDS011;4694;52.464;13.480;2022-09-06T14:49:29;6.40;;;3.40;;
9310;SDS011;4694;52.464;13.480;2022-09-06T14:51:58;5.03;;;3.03;;
9310;SDS011;4694;52.464;13.480;2022-09-06T14:54:25;5.95;;;3.40;;
9310;SDS011;4694;52.464;13.480;2022-09-06T14:56:52;3.88;;;3.28;;
9310;SDS011;4694;52.464;13.480;2022-09-06T14:59:19;5.60;;;2.63;;
9310;SDS011;4694;52.464;13.480;2022-09-06T15:01:46;3.67;;;2.97;;
9310;SDS011;4694;52.464;13.480;2022-09-06T15:04:13;6.72;;;3.35;;
9310;SDS011;4694;52.464;13.480;2022-09-06T15:06:40;4.88;;;3.60;;
9310;SDS011;4694;52.464;13.480;2022-09-06T15:09:12;8.10;;;3.38;;
9310;SDS011;4694;52.464;13.480;2022-09-06T15:11:40;6.10;;;3.80;;
9310;SDS011;4694;52.464;13.480;2022-09-06T15:14:10;5.85;;;3.17;;
9310;SDS011;4694;52.464;13.480;2022-09-06T15:16:38;4.82;;;4.28;;
9310;SDS011;4694;52.464;13.480;2022-09-06T15:19:05;4.55;;;3.22;;
9310;SDS011;4694;52.464;13.480;2022-09-06T15:21:32;6.35;;;3.08;;
9310;SDS011;4694;52.464;13.480;2022-09-06T15:23:59;7.38;;;3.33;;
9310;SDS011;4694;52.464;13.480;2022-09-06T15:26:28;4.75;;;3.35;;
9310;SDS011;4694;52.464;13.480;2022-09-06T15:28:55;3.63;;;2.67;;
9310;SDS011;4694;52.464;13.480;2022-09-06T15:31:22;6.20;;;3.60;;
9310;SDS011;4694;52.464;13.480;2022-09-06T15:33:50;5.13;;;4.18;;
9310;SDS011;4694;52.464;13.480;2022-09-06T15:36:17;4.07;;;3.30;;
9310;SDS011;4694;52.464;13.480;2022-09-06T15:38:46;3.58;;;3.08;;
9310;SDS011;4694;52.464;13.480;2022-09-06T15:41:14;3.67;;;3.08;;
9310;SDS011;4694;52.464;13.480;2022-09-06T15:43:43;5.82;;;3.78;;
9310;SDS011;4694;52.464;13.480;2022-09-06T15:46:11;5.75;;;3.40;;
9310;SDS011;4694;52.464;13.480;2022-09-06T15:48:39;5.47;;;3.60;;